createdAt,value
2019-04-01T00:00:36.478Z,91.00
2019-04-01T00:03:07.029Z,91.00
2019-04-01T00:05:36.092Z,91.00
2019-04-01T00:08:05.199Z,91.00
2019-04-01T00:10:34.407Z,91.00
2019-04-01T00:13:03.529Z,91.00
2019-04-01T00:15:32.659Z,91.00
2019-04-01T00:18:02.098Z,91.00
2019-04-01T00:20:31.233Z,90.90
2019-04-01T00:23:00.548Z,91.00
2019-04-01T00:25:29.652Z,91.00
2019-04-01T00:27:58.654Z,91.00
2019-04-01T00:30:27.713Z,91.00
2019-04-01T00:32:56.763Z,91.10
2019-04-01T00:35:25.997Z,91.10
2019-04-01T00:37:55.074Z,91.10
2019-04-01T00:40:24.301Z,91.00
2019-04-01T00:43:01.694Z,91.00
2019-04-01T00:45:31.640Z,90.90
2019-04-01T00:48:00.963Z,91.00
2019-04-01T00:50:30.124Z,91.00
2019-04-01T00:52:59.253Z,90.90
2019-04-01T00:55:28.574Z,90.80
2019-04-01T00:57:57.735Z,90.90
2019-04-01T01:00:26.971Z,90.80
2019-04-01T01:02:56.035Z,90.80
2019-04-01T01:05:25.139Z,90.90
2019-04-01T01:07:54.190Z,91.00
2019-04-01T01:10:23.324Z,90.90
2019-04-01T01:12:52.359Z,90.90
2019-04-01T01:15:21.607Z,90.90
2019-04-01T01:17:50.879Z,90.70
2019-04-01T01:20:19.913Z,90.70
2019-04-01T01:22:48.928Z,90.90
2019-04-01T01:25:18.077Z,90.90
2019-04-01T01:27:47.236Z,90.90
2019-04-01T01:30:16.447Z,90.80
2019-04-01T01:32:45.479Z,90.90
2019-04-01T01:35:14.646Z,91.00
2019-04-01T01:37:44.259Z,91.00
2019-04-01T01:40:13.410Z,91.10
2019-04-01T01:42:42.547Z,91.10
2019-04-01T01:45:11.665Z,91.10
2019-04-01T01:47:40.668Z,91.10
2019-04-01T01:50:09.891Z,91.20
2019-04-01T01:52:39.004Z,91.30
2019-04-01T01:55:08.126Z,91.30
2019-04-01T01:57:37.231Z,91.30
2019-04-01T02:00:06.678Z,91.30
2019-04-01T02:02:35.590Z,91.50
2019-04-01T02:05:04.863Z,91.50
2019-04-01T02:07:34.208Z,91.50
2019-04-01T02:10:03.593Z,91.80
2019-04-01T02:12:32.824Z,91.60
2019-04-01T02:15:02.128Z,91.50
2019-04-01T02:17:31.264Z,91.60
2019-04-01T02:20:00.558Z,91.70
2019-04-01T02:22:30.010Z,91.90
2019-04-01T02:24:59.172Z,91.80
2019-04-01T02:27:28.338Z,91.90
2019-04-01T02:29:57.346Z,92.00
2019-04-01T02:32:26.369Z,92.10
2019-04-01T02:34:55.397Z,92.00
2019-04-01T02:37:24.875Z,92.10
2019-04-01T02:39:54.106Z,92.20
2019-04-01T02:42:23.234Z,92.20
2019-04-01T02:44:52.277Z,92.30
2019-04-01T02:47:21.489Z,92.30
2019-04-01T02:49:50.537Z,92.20
2019-04-01T02:52:19.812Z,92.30
2019-04-01T02:54:49.226Z,92.40
2019-04-01T02:57:18.244Z,92.50
2019-04-01T02:59:47.240Z,92.60
2019-04-01T03:02:16.338Z,92.80
2019-04-01T03:04:45.426Z,92.80
2019-04-01T03:07:14.364Z,92.80
2019-04-01T03:09:43.395Z,92.80
2019-04-01T03:12:12.490Z,93.00
2019-04-01T03:14:41.561Z,93.00
2019-04-01T03:17:10.635Z,93.00
2019-04-01T03:19:39.907Z,93.10
2019-04-01T03:22:08.983Z,93.20
2019-04-01T03:24:37.989Z,93.30
2019-04-01T03:27:07.097Z,93.30
2019-04-01T03:29:36.419Z,93.50
2019-04-01T03:32:05.500Z,93.40
2019-04-01T03:34:34.428Z,93.90
2019-04-01T03:37:03.522Z,93.70
2019-04-01T03:39:32.938Z,93.80
2019-04-01T03:42:01.892Z,93.70
2019-04-01T03:44:31.113Z,93.80
2019-04-01T03:47:00.140Z,93.80
2019-04-01T03:49:29.179Z,93.80
2019-04-01T03:51:58.292Z,93.90
2019-04-01T03:54:27.358Z,93.90
2019-04-01T03:56:56.762Z,93.90
2019-04-01T03:59:26.264Z,93.90
2019-04-01T04:01:55.354Z,94.00
2019-04-01T04:04:24.459Z,94.10
2019-04-01T04:06:53.565Z,94.10
2019-04-01T04:09:23.000Z,94.20
2019-04-01T04:11:52.133Z,94.20
2019-04-01T04:14:21.180Z,94.10
2019-04-01T04:16:50.169Z,94.30
2019-04-01T04:19:19.290Z,94.30
2019-04-01T04:21:48.328Z,94.30
2019-04-01T04:24:17.302Z,94.40
2019-04-01T04:26:46.317Z,94.50
2019-04-01T04:29:15.898Z,94.50
2019-04-01T04:31:44.949Z,94.50
2019-04-01T04:34:13.987Z,94.50
2019-04-01T04:36:43.073Z,94.60
2019-04-01T04:39:12.191Z,94.70
2019-04-01T04:41:41.463Z,94.80
2019-04-01T04:44:10.563Z,94.80
2019-04-01T04:46:39.755Z,94.80
2019-04-01T04:49:09.102Z,94.80
2019-04-01T04:51:38.326Z,94.90
2019-04-01T04:54:07.604Z,94.90
2019-04-01T04:56:36.732Z,95.00
2019-04-01T04:59:05.819Z,95.30
2019-04-01T05:01:34.943Z,95.20
2019-04-01T05:04:04.163Z,95.30
2019-04-01T05:06:33.318Z,95.40
2019-04-01T05:09:02.600Z,95.40
2019-04-01T05:11:31.629Z,95.40
2019-04-01T05:14:00.758Z,95.50
2019-04-01T05:16:29.814Z,95.50
2019-04-01T05:18:58.894Z,95.50
2019-04-01T05:21:28.902Z,95.60
2019-04-01T05:23:58.006Z,95.70
2019-04-01T05:26:28.215Z,95.60
2019-04-01T05:28:59.628Z,95.80
2019-04-01T05:31:30.967Z,95.90
2019-04-01T05:34:02.407Z,95.90
2019-04-01T05:36:32.331Z,96.00
2019-04-01T05:39:01.423Z,96.10
2019-04-01T05:41:30.565Z,96.00
2019-04-01T05:44:02.419Z,96.10
2019-04-01T05:46:31.830Z,96.20
2019-04-01T05:49:01.027Z,96.20
2019-04-01T05:51:30.471Z,96.20
2019-04-01T05:53:59.842Z,96.30
2019-04-01T05:56:28.919Z,96.40
2019-04-01T05:58:58.802Z,96.40
2019-04-01T06:01:33.530Z,96.50
2019-04-01T06:04:02.685Z,96.60
2019-04-01T06:06:31.891Z,96.90
2019-04-01T06:09:00.935Z,96.80
2019-04-01T06:11:29.995Z,96.70
2019-04-01T06:13:59.121Z,96.80
2019-04-01T06:16:28.324Z,96.80
2019-04-01T06:18:57.398Z,96.90
2019-04-01T06:21:26.382Z,96.90
2019-04-01T06:23:55.972Z,96.80
2019-04-01T06:26:24.998Z,96.80
2019-04-01T06:28:54.254Z,96.80
2019-04-01T06:31:23.441Z,96.60
2019-04-01T06:33:53.019Z,96.50
2019-04-01T06:36:22.228Z,96.40
2019-04-01T06:38:51.410Z,96.00
2019-04-01T06:41:20.443Z,95.90
2019-04-01T06:43:49.581Z,96.00
2019-04-01T06:46:18.690Z,95.90
2019-04-01T06:48:47.876Z,95.90
2019-04-01T06:51:16.997Z,95.80
2019-04-01T06:53:46.090Z,95.80
2019-04-01T06:56:15.188Z,95.80
2019-04-01T06:58:44.266Z,96.10
2019-04-01T07:01:13.619Z,95.90
2019-04-01T07:03:42.766Z,95.70
2019-04-01T07:06:11.870Z,95.20
2019-04-01T07:08:41.012Z,95.10
2019-04-01T07:11:10.151Z,95.40
2019-04-01T07:13:40.195Z,95.10
2019-04-01T07:16:15.678Z,95.20
2019-04-01T07:18:40.464Z,95.40
2019-04-01T07:21:09.629Z,95.10
2019-04-01T07:23:39.147Z,95.30
2019-04-01T07:26:08.270Z,95.40
2019-04-01T07:28:37.398Z,95.80
2019-04-01T07:31:06.498Z,96.10
2019-04-01T07:33:35.681Z,96.30
2019-04-01T07:36:04.864Z,96.10
2019-04-01T07:38:33.961Z,96.50
2019-04-01T07:41:03.069Z,96.30
2019-04-01T07:43:32.235Z,96.00
2019-04-01T07:46:01.307Z,95.60
2019-04-01T07:48:30.648Z,95.50
2019-04-01T07:51:02.307Z,95.20
2019-04-01T07:53:31.695Z,95.20
2019-04-01T07:56:02.477Z,95.10
2019-04-01T07:58:31.600Z,95.10
2019-04-01T08:01:00.668Z,95.10
2019-04-01T08:03:29.798Z,94.90
2019-04-01T08:05:58.850Z,94.80
2019-04-01T08:08:27.995Z,95.10
2019-04-01T08:10:57.051Z,95.30
2019-04-01T08:13:26.167Z,95.10
2019-04-01T08:15:55.546Z,94.80
2019-04-01T08:18:24.710Z,94.90
2019-04-01T08:20:53.827Z,94.20
2019-04-01T08:23:22.902Z,94.80
2019-04-01T08:25:51.842Z,94.40
2019-04-01T08:28:23.684Z,93.70
2019-04-01T08:30:51.839Z,93.10
2019-04-01T08:33:20.914Z,92.70
2019-04-01T08:35:50.103Z,92.40
2019-04-01T08:38:19.291Z,92.30
2019-04-01T08:40:48.433Z,92.70
2019-04-01T08:43:17.808Z,91.70
2019-04-01T08:45:46.950Z,91.60
2019-04-01T08:48:16.079Z,91.50
2019-04-01T08:50:45.523Z,91.10
2019-04-01T08:53:14.867Z,90.30
2019-04-01T08:55:44.231Z,87.50
2019-04-01T08:58:13.318Z,86.50
2019-04-01T09:00:42.334Z,84.10
2019-04-01T09:03:11.482Z,83.40
2019-04-01T09:05:40.875Z,84.40
2019-04-01T09:08:10.038Z,83.90
2019-04-01T09:10:39.372Z,82.40
2019-04-01T09:13:08.774Z,81.80
2019-04-01T09:15:37.831Z,81.60
2019-04-01T09:18:06.828Z,82.10
2019-04-01T09:20:35.754Z,82.50
2019-04-01T09:23:04.896Z,80.80
2019-04-01T09:25:33.975Z,82.10
2019-04-01T09:28:03.260Z,80.90
2019-04-01T09:30:32.434Z,79.10
2019-04-01T09:33:01.682Z,78.20
2019-04-01T09:35:30.790Z,78.20
2019-04-01T09:37:59.873Z,79.00
2019-04-01T09:40:29.022Z,78.90
2019-04-01T09:42:58.140Z,78.20
2019-04-01T09:45:27.340Z,78.40
2019-04-01T09:47:56.518Z,77.70
2019-04-01T09:50:25.650Z,78.10
2019-04-01T09:52:54.873Z,75.50
2019-04-01T09:55:24.037Z,75.70
2019-04-01T09:57:53.207Z,75.60
2019-04-01T10:00:22.580Z,76.90
2019-04-01T10:02:51.677Z,78.30
2019-04-01T10:05:20.791Z,77.50
2019-04-01T10:07:50.040Z,75.20
2019-04-01T10:10:19.265Z,75.80
2019-04-01T10:12:48.746Z,76.90
2019-04-01T10:15:17.811Z,75.00
2019-04-01T10:17:46.916Z,75.20
2019-04-01T10:20:16.419Z,75.50
2019-04-01T10:22:45.439Z,75.50
2019-04-01T10:25:14.753Z,76.60
2019-04-01T10:27:43.879Z,75.30
2019-04-01T10:30:13.339Z,75.50
2019-04-01T10:32:42.505Z,75.40
2019-04-01T10:35:11.719Z,76.40
2019-04-01T10:37:40.781Z,75.20
2019-04-01T10:40:10.124Z,76.60
2019-04-01T10:42:39.453Z,74.80
2019-04-01T10:45:09.367Z,73.90
2019-04-01T10:47:38.672Z,73.40
2019-04-01T10:50:08.322Z,73.70
2019-04-01T10:52:37.454Z,72.70
2019-04-01T10:55:08.175Z,75.00
2019-04-01T10:57:37.437Z,72.60
2019-04-01T11:00:08.095Z,72.10
2019-04-01T11:02:37.413Z,71.90
2019-04-01T11:05:06.877Z,73.10
2019-04-01T11:07:36.166Z,74.30
2019-04-01T11:10:06.019Z,74.10
2019-04-01T11:12:35.179Z,71.20
2019-04-01T11:15:04.638Z,72.40
2019-04-01T11:17:33.778Z,70.60
2019-04-01T11:20:03.127Z,70.50
2019-04-01T11:22:32.330Z,71.10
2019-04-01T11:25:01.833Z,69.40
2019-04-01T11:27:31.106Z,70.00
2019-04-01T11:30:00.460Z,66.70
2019-04-01T11:32:29.581Z,68.40
2019-04-01T11:34:58.895Z,69.40
2019-04-01T11:37:28.126Z,69.50
2019-04-01T11:39:57.564Z,70.20
2019-04-01T11:42:26.681Z,68.40
2019-04-01T11:44:56.369Z,66.80
2019-04-01T11:47:25.513Z,69.70
2019-04-01T11:49:54.844Z,65.00
2019-04-01T11:52:24.064Z,64.30
2019-04-01T11:55:06.609Z,65.80
2019-04-01T11:57:36.101Z,61.90
2019-04-01T12:00:12.451Z,62.00
2019-04-01T12:02:40.623Z,62.80
2019-04-01T12:05:09.798Z,62.10
2019-04-01T12:07:38.797Z,64.40
2019-04-01T12:10:08.348Z,63.50
2019-04-01T12:12:37.628Z,61.20
2019-04-01T12:15:11.654Z,61.00
2019-04-01T12:17:41.552Z,58.10
2019-04-01T12:20:11.807Z,59.20
2019-04-01T12:22:45.200Z,59.90
2019-04-01T12:25:12.799Z,60.40
2019-04-01T12:27:42.250Z,60.70
2019-04-01T12:30:11.517Z,58.80
2019-04-01T12:32:41.020Z,58.30
2019-04-01T12:35:16.302Z,58.50
2019-04-01T12:37:46.818Z,59.00
2019-04-01T12:40:16.007Z,59.90
2019-04-01T12:42:47.192Z,58.80
2019-04-01T12:45:17.747Z,57.50
2019-04-01T12:47:46.917Z,57.50
2019-04-01T12:50:16.099Z,57.00
2019-04-01T12:52:45.193Z,58.40
2019-04-01T12:55:14.795Z,57.30
2019-04-01T12:57:43.979Z,58.60
2019-04-01T13:00:14.622Z,58.90
2019-04-01T13:02:43.651Z,59.40
2019-04-01T13:05:12.749Z,57.50
2019-04-01T13:07:41.846Z,56.40
2019-04-01T13:10:11.047Z,56.20
2019-04-01T13:12:46.339Z,56.60
2019-04-01T13:15:15.685Z,57.70
2019-04-01T13:17:44.693Z,57.40
2019-04-01T13:20:14.139Z,57.70
2019-04-01T13:22:43.634Z,55.90
2019-04-01T13:25:12.926Z,55.80
2019-04-01T13:27:42.343Z,57.00
2019-04-01T13:30:11.774Z,57.40
2019-04-01T13:32:41.117Z,57.20
2019-04-01T13:35:12.053Z,55.40
2019-04-01T13:37:41.042Z,56.00
2019-04-01T13:40:11.163Z,53.80
2019-04-01T13:42:40.543Z,54.30
2019-04-01T13:45:09.623Z,55.40
2019-04-01T13:47:41.244Z,53.50
2019-04-01T13:50:09.490Z,53.30
2019-04-01T13:52:38.438Z,53.30
2019-04-01T13:55:07.469Z,53.90
2019-04-01T13:57:36.520Z,54.00
2019-04-01T14:00:06.368Z,54.70
2019-04-01T14:02:35.564Z,53.70
2019-04-01T14:05:06.266Z,50.70
2019-04-01T14:07:35.669Z,50.70
2019-04-01T14:10:05.474Z,51.00
2019-04-01T14:12:34.507Z,53.40
2019-04-01T14:15:03.992Z,53.10
2019-04-01T14:17:33.198Z,52.70
2019-04-01T14:20:02.208Z,53.90
2019-04-01T14:22:31.292Z,51.70
2019-04-01T14:25:00.367Z,51.90
2019-04-01T14:27:29.371Z,50.70
2019-04-01T14:29:58.302Z,51.50
2019-04-01T14:32:27.567Z,50.20
2019-04-01T14:34:57.193Z,50.40
2019-04-01T14:37:29.942Z,50.20
2019-04-01T14:39:57.255Z,50.40
2019-04-01T14:42:32.237Z,50.30
2019-04-01T14:45:02.467Z,49.70
2019-04-01T14:47:35.319Z,51.20
2019-04-01T14:50:07.672Z,50.80
2019-04-01T14:52:35.478Z,50.30
2019-04-01T14:55:04.970Z,49.50
2019-04-01T14:57:40.402Z,49.30
2019-04-01T15:00:12.482Z,50.10
2019-04-01T15:02:41.780Z,50.30
2019-04-01T15:05:10.987Z,49.20
2019-04-01T15:07:42.444Z,48.20
2019-04-01T15:10:11.828Z,48.60
2019-04-01T15:12:41.160Z,48.90
2019-04-01T15:15:12.665Z,48.40
2019-04-01T15:17:41.940Z,46.30
2019-04-01T15:20:16.373Z,46.90
2019-04-01T15:22:45.566Z,47.90
2019-04-01T15:27:53.464Z,49.30
2019-04-01T15:30:22.991Z,48.00
2019-04-01T15:32:56.371Z,48.50
2019-04-01T15:35:29.083Z,48.20
2019-04-01T15:37:58.586Z,46.80
2019-04-01T15:40:27.820Z,46.50
2019-04-01T15:42:57.032Z,46.60
2019-04-01T15:45:26.203Z,47.00
2019-04-01T15:47:55.325Z,47.80
2019-04-01T15:50:28.711Z,47.70
2019-04-01T15:52:55.465Z,48.90
2019-04-01T15:55:24.527Z,48.90
2019-04-01T15:57:53.607Z,47.70
2019-04-01T16:00:22.902Z,46.90
2019-04-01T16:02:52.306Z,46.60
2019-04-01T16:05:21.468Z,47.40
2019-04-01T16:07:50.594Z,47.80
2019-04-01T16:10:20.994Z,47.90
2019-04-01T16:12:50.334Z,47.80
2019-04-01T16:15:19.544Z,48.00
2019-04-01T16:17:48.584Z,47.00
2019-04-01T16:20:17.723Z,48.10
2019-04-01T16:22:46.803Z,47.20
2019-04-01T16:25:15.955Z,47.70
2019-04-01T16:27:45.027Z,47.60
2019-04-01T16:30:14.655Z,46.90
2019-04-01T16:32:43.823Z,47.00
2019-04-01T16:35:13.128Z,47.10
2019-04-01T16:37:42.737Z,47.60
2019-04-01T16:40:12.167Z,48.10
2019-04-01T16:42:41.447Z,48.00
2019-04-01T16:45:13.598Z,48.40
2019-04-01T16:47:43.252Z,48.30
2019-04-01T16:50:12.906Z,48.00
2019-04-01T16:52:42.103Z,48.90
2019-04-01T16:55:12.787Z,48.10
2019-04-01T16:57:42.026Z,48.00
2019-04-01T17:00:14.584Z,46.50
2019-04-01T17:02:42.806Z,46.70
2019-04-01T17:05:12.222Z,46.30
2019-04-01T17:07:41.526Z,46.40
2019-04-01T17:10:12.484Z,46.60
2019-04-01T17:12:41.535Z,46.20
2019-04-01T17:15:11.739Z,46.80
2019-04-01T17:17:40.902Z,47.30
2019-04-01T17:20:10.130Z,47.90
2019-04-01T17:22:39.189Z,48.30
2019-04-01T17:25:08.496Z,48.90
2019-04-01T17:27:37.995Z,48.90
2019-04-01T17:30:07.955Z,49.00
2019-04-01T17:32:37.417Z,49.30
2019-04-01T17:35:07.155Z,49.40
2019-04-01T17:37:37.233Z,49.90
2019-04-01T17:40:08.987Z,49.40
2019-04-01T17:42:39.371Z,48.80
2019-04-01T17:45:27.190Z,49.50
2019-04-01T17:47:56.514Z,50.00
2019-04-01T17:50:25.783Z,50.60
2019-04-01T17:52:55.277Z,50.80
2019-04-01T17:55:24.416Z,51.10
2019-04-01T17:57:53.692Z,51.40
2019-04-01T18:00:25.090Z,51.20
2019-04-01T18:02:54.341Z,51.60
2019-04-01T18:05:24.147Z,51.00
2019-04-01T18:07:53.214Z,50.90
2019-04-01T18:10:22.436Z,51.10
2019-04-01T18:12:51.958Z,50.60
2019-04-01T18:15:21.627Z,51.00
2019-04-01T18:17:50.855Z,50.80
2019-04-01T18:20:20.427Z,51.40
2019-04-01T18:22:49.780Z,51.60
2019-04-01T18:25:18.976Z,51.60
2019-04-01T18:27:48.151Z,52.40
2019-04-01T18:30:18.047Z,51.10
2019-04-01T18:32:47.354Z,51.50
2019-04-01T18:35:16.698Z,51.90
2019-04-01T18:37:45.922Z,52.40
2019-04-01T18:40:15.220Z,52.40
2019-04-01T18:42:44.652Z,52.50
2019-04-01T18:45:14.061Z,51.90
2019-04-01T18:47:43.264Z,52.30
2019-04-01T18:50:14.256Z,52.70
2019-04-01T18:52:43.427Z,52.70
2019-04-01T18:55:12.817Z,52.70
2019-04-01T18:57:41.976Z,52.90
2019-04-01T19:00:12.687Z,53.50
2019-04-01T19:02:42.270Z,53.40
2019-04-01T19:05:12.951Z,53.60
2019-04-01T19:07:42.402Z,53.50
2019-04-01T19:10:11.871Z,53.90
2019-04-01T19:12:41.169Z,54.30
2019-04-01T19:15:16.705Z,54.30
2019-04-01T19:17:45.950Z,54.30
2019-04-01T19:20:15.324Z,54.50
2019-04-01T19:22:44.682Z,54.60
2019-04-01T19:25:14.127Z,54.80
2019-04-01T19:27:43.308Z,55.10
2019-04-01T19:30:12.787Z,55.40
2019-04-01T19:32:41.958Z,55.40
2019-04-01T19:35:11.332Z,55.40
2019-04-01T19:37:40.596Z,55.10
2019-04-01T19:40:10.238Z,55.10
2019-04-01T19:42:39.871Z,55.30
2019-04-01T19:47:59.381Z,55.60
2019-04-01T19:50:28.699Z,56.20
2019-04-01T19:52:58.191Z,56.10
2019-04-01T19:55:27.415Z,55.90
2019-04-01T19:57:56.685Z,56.10
2019-04-01T20:00:28.091Z,56.30
2019-04-01T20:02:57.013Z,56.40
2019-04-01T20:05:26.175Z,56.60
2019-04-01T20:07:55.376Z,56.90
2019-04-01T20:10:24.672Z,56.60
2019-04-01T20:12:53.840Z,56.50
2019-04-01T20:15:22.901Z,56.40
2019-04-01T20:17:52.247Z,56.10
2019-04-01T20:20:21.346Z,56.50
2019-04-01T20:22:50.685Z,57.10
2019-04-01T20:25:19.871Z,57.70
2019-04-01T20:27:49.527Z,57.30
2019-04-01T20:30:19.035Z,57.40
2019-04-01T20:32:49.150Z,56.80
2019-04-01T20:35:30.687Z,57.50
2019-04-01T20:37:59.798Z,57.30
2019-04-01T20:40:28.875Z,57.20
2019-04-01T20:42:57.851Z,57.50
2019-04-01T20:45:27.089Z,57.70
2019-04-01T20:47:56.323Z,57.90
2019-04-01T20:50:25.566Z,57.80
2019-04-01T20:52:54.781Z,57.80
2019-04-01T20:55:23.989Z,57.80
2019-04-01T20:57:53.086Z,57.90
2019-04-01T21:00:28.230Z,58.10
2019-04-01T21:02:57.411Z,58.20
2019-04-01T21:05:26.770Z,58.00
2019-04-01T21:07:56.002Z,57.90
2019-04-01T21:10:24.990Z,58.00
2019-04-01T21:12:54.123Z,58.20
2019-04-01T21:15:23.347Z,58.10
2019-04-01T21:17:52.521Z,58.00
2019-04-01T21:20:21.739Z,58.30
2019-04-01T21:22:50.798Z,58.70
2019-04-01T21:25:19.895Z,58.50
2019-04-01T21:27:48.952Z,59.20
2019-04-01T21:30:18.027Z,59.00
2019-04-01T21:32:47.377Z,59.60
2019-04-01T21:35:16.528Z,59.50
2019-04-01T21:37:45.866Z,59.70
2019-04-01T21:40:15.072Z,59.60
2019-04-01T21:42:44.226Z,59.90
2019-04-01T21:45:13.874Z,60.10
2019-04-01T21:47:43.000Z,60.20
2019-04-01T21:50:12.204Z,60.80
2019-04-01T21:52:41.459Z,60.80
2019-04-01T21:55:10.454Z,61.60
2019-04-01T21:57:39.499Z,60.60
2019-04-01T22:00:11.038Z,60.50
2019-04-01T22:02:40.328Z,60.80
2019-04-01T22:05:10.786Z,60.90
2019-04-01T22:07:40.056Z,61.10
2019-04-01T22:10:09.743Z,61.00
2019-04-01T22:12:39.298Z,61.30
2019-04-01T22:15:08.649Z,61.70
2019-04-01T22:17:37.875Z,61.80
2019-04-01T22:20:07.590Z,61.60
2019-04-01T22:22:37.334Z,61.70
2019-04-01T22:25:06.744Z,61.70
2019-04-01T22:27:36.112Z,61.60
2019-04-01T22:30:06.366Z,61.80
2019-04-01T22:32:35.400Z,62.00
2019-04-01T22:35:05.490Z,62.40
2019-04-01T22:37:34.807Z,61.90
2019-04-01T22:40:04.647Z,62.70
2019-04-01T22:42:33.683Z,62.60
2019-04-01T22:45:03.492Z,63.00
2019-04-01T22:47:32.585Z,63.00
2019-04-01T22:50:01.689Z,63.40
2019-04-01T22:52:30.756Z,63.60
2019-04-01T22:54:59.913Z,63.40
2019-04-01T22:57:29.101Z,63.30
2019-04-01T22:59:58.198Z,63.80
2019-04-01T23:02:27.235Z,63.80
2019-04-01T23:04:56.333Z,64.00
2019-04-01T23:07:25.499Z,64.00
2019-04-01T23:09:54.615Z,64.20
2019-04-01T23:12:23.659Z,64.30
2019-04-01T23:14:52.851Z,64.40
2019-04-01T23:17:21.907Z,64.40
2019-04-01T23:19:51.170Z,64.30
2019-04-01T23:22:20.111Z,64.60
2019-04-01T23:24:49.137Z,64.90
2019-04-01T23:27:18.205Z,65.10
2019-04-01T23:29:47.302Z,64.90
2019-04-01T23:32:16.767Z,64.90
2019-04-01T23:34:46.191Z,65.80
2019-04-01T23:37:15.518Z,65.30
2019-04-01T23:39:44.731Z,65.30
2019-04-01T23:42:13.766Z,64.90
2019-04-01T23:44:42.881Z,65.20
2019-04-01T23:47:11.907Z,65.50
2019-04-01T23:49:41.143Z,65.30
2019-04-01T23:52:10.208Z,65.50
2019-04-01T23:54:39.255Z,65.70
2019-04-01T23:57:08.410Z,65.80
2019-04-01T23:59:37.654Z,66.30
